Time;durP1;ratioP1;P1;durP2;ratioP2;P2;SDS_P1;SDS_P2;PMS_P1;PMS_P2;Temp;Humidity;BMP_temperature;BMP_pressure;BME280_temperature;BME280_humidity;BME280_pressure;Samples;Min_cycle;Max_cycle;Signal;HPM_P1;HPM_P2
2021/07/22 00:00:45;;;;;;;4.78;3.88;;;10.70;98.80;;;;;;5072705;28;20017;-60
2021/07/22 00:03:12;;;;;;;4.70;4.20;;;10.80;98.90;;;;;;5071287;28;20036;-60
2021/07/22 00:05:39;;;;;;;3.80;3.50;;;10.80;98.90;;;;;;5072801;28;20119;-60
2021/07/22 00:08:11;;;;;;;4.32;3.75;;;10.70;98.80;;;;;;5072794;28;20024;-60
2021/07/22 00:10:41;;;;;;;4.80;3.75;;;10.80;98.70;;;;;;5072769;28;20025;-60
2021/07/22 00:13:09;;;;;;;4.75;3.88;;;10.90;98.70;;;;;;5072961;28;20048;-60
2021/07/22 00:15:36;;;;;;;5.13;4.13;;;11.00;98.20;;;;;;5071485;28;20032;-62
2021/07/22 00:18:04;;;;;;;3.60;3.30;;;11.00;98.20;;;;;;5072699;28;20052;-62
2021/07/22 00:20:31;;;;;;;4.88;3.53;;;11.20;98.50;;;;;;5072568;28;20397;-60
2021/07/22 00:22:58;;;;;;;4.38;3.40;;;11.40;97.40;;;;;;5072489;28;20063;-59
2021/07/22 00:25:26;;;;;;;3.60;3.25;;;11.50;97.50;;;;;;5072565;28;20017;-59
2021/07/22 00:27:53;;;;;;;3.53;3.20;;;11.50;96.60;;;;;;5072837;28;20021;-59
2021/07/22 00:30:20;;;;;;;3.47;3.20;;;11.40;96.90;;;;;;5072927;28;20017;-59
2021/07/22 00:32:48;;;;;;;3.60;3.33;;;11.60;97.30;;;;;;5074426;28;20024;-59
2021/07/22 00:35:15;;;;;;;3.80;3.50;;;11.70;97.10;;;;;;5073933;28;20078;-59
2021/07/22 00:37:42;;;;;;;4.15;3.20;;;11.80;97.10;;;;;;5072995;28;20142;-59
2021/07/22 00:40:10;;;;;;;3.90;3.50;;;11.90;96.70;;;;;;5072966;28;20017;-59
2021/07/22 00:42:55;;;;;;;5.47;3.58;;;12.10;96.80;;;;;;5072968;28;20142;-59
2021/07/22 00:45:23;;;;;;;4.28;3.88;;;12.10;96.20;;;;;;5072694;28;20473;-59
2021/07/22 00:47:51;;;;;;;4.03;3.33;;;12.10;96.90;;;;;;5075094;28;20029;-58
2021/07/22 00:50:18;;;;;;;4.07;3.38;;;12.20;96.80;;;;;;5076386;28;20020;-58
2021/07/22 00:52:45;;;;;;;3.33;3.00;;;12.50;96.20;;;;;;5076152;28;20420;-59
2021/07/22 00:55:33;;;;;;;3.22;3.03;;;12.40;94.70;;;;;;5076084;28;20086;-59
2021/07/22 00:58:00;;;;;;;2.90;2.67;;;12.30;95.70;;;;;;5076190;28;20558;-60
2021/07/22 01:00:27;;;;;;;4.55;2.70;;;12.40;95.70;;;;;;5076071;28;20020;-58
2021/07/22 01:02:55;;;;;;;3.35;2.72;;;12.60;95.00;;;;;;5075936;28;20093;-58
2021/07/22 01:05:22;;;;;;;7.22;3.50;;;12.50;94.40;;;;;;5075924;28;20570;-60
2021/07/22 01:07:50;;;;;;;3.78;3.17;;;12.70;95.60;;;;;;5075872;28;20508;-59
2021/07/22 01:10:17;;;;;;;5.38;3.15;;;12.90;95.60;;;;;;5075926;28;20028;-59
2021/07/22 01:12:44;;;;;;;3.13;2.80;;;13.00;94.80;;;;;;5075961;28;20020;-61
2021/07/22 01:15:12;;;;;;;3.22;2.60;;;13.10;94.70;;;;;;5075756;28;20489;-57
2021/07/22 01:17:50;;;;;;;2.85;2.55;;;13.10;94.30;;;;;;5075690;28;20025;-64
2021/07/22 01:20:22;;;;;;;3.33;3.03;;;13.20;94.90;;;;;;5075737;28;20050;-63
2021/07/22 01:22:51;;;;;;;3.47;2.90;;;13.30;94.80;;;;;;5075572;28;20036;-66
2021/07/22 01:25:19;;;;;;;4.40;2.80;;;13.20;93.90;;;;;;5075436;28;20025;-65
2021/07/22 01:27:47;;;;;;;3.50;2.97;;;13.50;93.20;;;;;;5075555;28;20024;-64
2021/07/22 01:30:16;;;;;;;3.25;2.70;;;13.50;93.90;;;;;;5075436;28;20047;-60
2021/07/22 01:32:44;;;;;;;4.05;3.08;;;13.70;94.50;;;;;;5075368;28;20031;-60
2021/07/22 01:35:13;;;;;;;3.20;2.92;;;13.90;94.10;;;;;;5075338;28;20079;-63
2021/07/22 01:37:42;;;;;;;3.88;2.95;;;13.90;93.30;;;;;;5075267;28;20043;-61
2021/07/22 01:40:10;;;;;;;4.70;3.17;;;13.90;92.70;;;;;;5075337;28;20060;-66
2021/07/22 01:42:38;;;;;;;3.70;2.88;;;14.00;92.90;;;;;;5075353;28;20039;-66
2021/07/22 01:45:07;;;;;;;3.92;3.00;;;13.80;92.90;;;;;;5075148;28;20165;-64
2021/07/22 01:47:36;;;;;;;4.53;3.40;;;13.90;93.20;;;;;;5075208;28;20493;-65
2021/07/22 01:50:04;;;;;;;3.58;3.38;;;13.90;93.10;;;;;;5075207;28;20025;-62
2021/07/22 01:52:31;;;;;;;3.30;3.10;;;14.10;93.20;;;;;;5075118;28;20225;-62
2021/07/22 01:54:59;;;;;;;3.63;3.33;;;14.30;93.00;;;;;;5075113;28;20385;-57
2021/07/22 01:57:26;;;;;;;6.20;3.05;;;14.30;92.30;;;;;;5074331;28;20451;-58
2021/07/22 01:59:53;;;;;;;6.03;3.30;;;14.40;92.60;;;;;;5075034;28;20028;-57
2021/07/22 02:02:21;;;;;;;3.67;2.95;;;14.50;91.80;;;;;;5074799;28;20086;-59
2021/07/22 02:04:48;;;;;;;3.83;3.38;;;14.40;91.80;;;;;;5074844;28;20481;-60
2021/07/22 02:07:15;;;;;;;4.47;3.55;;;14.30;91.80;;;;;;5074929;28;20020;-60
2021/07/22 02:09:43;;;;;;;4.20;3.13;;;14.50;92.00;;;;;;5074784;28;20039;-61
2021/07/22 02:12:10;;;;;;;4.60;3.22;;;14.70;92.10;;;;;;5074788;28;20473;-58
2021/07/22 02:14:39;;;;;;;4.00;3.35;;;14.90;91.90;;;;;;5074643;28;20027;-62
2021/07/22 02:17:06;;;;;;;4.75;3.30;;;14.80;91.10;;;;;;5074845;28;20027;-62
2021/07/22 02:19:33;;;;;;;3.97;3.00;;;15.00;91.30;;;;;;5074607;28;20142;-60
2021/07/22 02:22:01;;;;;;;3.22;2.90;;;14.90;91.70;;;;;;5074354;28;20154;-62
2021/07/22 02:24:28;;;;;;;3.75;3.03;;;15.00;91.30;;;;;;5074247;28;20028;-61
2021/07/22 02:26:56;;;;;;;5.63;3.13;;;15.00;90.90;;;;;;5074376;28;20017;-59
2021/07/22 02:29:24;;;;;;;4.53;3.88;;;15.10;91.30;;;;;;5074182;28;20017;-57
2021/07/22 02:31:51;;;;;;;3.70;3.35;;;15.10;90.60;;;;;;5074253;28;20017;-56
2021/07/22 02:34:18;;;;;;;4.47;3.50;;;15.00;90.90;;;;;;5074229;28;20019;-56
2021/07/22 02:36:45;;;;;;;5.05;3.38;;;15.00;91.40;;;;;;5074235;28;20020;-57
2021/07/22 02:39:13;;;;;;;4.03;3.30;;;14.90;91.00;;;;;;5074079;28;20028;-61
2021/07/22 02:41:40;;;;;;;3.85;3.40;;;14.90;91.00;;;;;;5074054;28;20568;-58
2021/07/22 02:44:07;;;;;;;3.53;3.20;;;15.20;90.60;;;;;;5074200;28;20020;-58
2021/07/22 02:46:35;;;;;;;3.63;2.90;;;15.40;90.60;;;;;;5074012;28;20104;-58
2021/07/22 02:49:02;;;;;;;4.03;3.35;;;15.50;90.60;;;;;;5074085;28;20017;-59
2021/07/22 02:51:30;;;;;;;4.47;3.50;;;15.60;90.40;;;;;;5073870;28;20025;-59
2021/07/22 02:53:57;;;;;;;3.33;3.03;;;15.70;90.70;;;;;;5073801;28;20390;-59
2021/07/22 02:56:25;;;;;;;5.25;3.30;;;15.90;90.00;;;;;;5073528;28;20094;-59
2021/07/22 02:58:52;;;;;;;4.15;3.30;;;16.10;90.30;;;;;;5073756;28;20031;-56
2021/07/22 03:01:20;;;;;;;4.22;3.10;;;16.10;88.80;;;;;;5073722;28;20031;-60
2021/07/22 03:03:47;;;;;;;3.78;3.45;;;16.00;88.20;;;;;;5073806;28;20052;-61
2021/07/22 03:06:17;;;;;;;4.50;3.20;;;16.00;87.70;;;;;;5073589;28;20545;-62
2021/07/22 03:08:44;;;;;;;3.55;3.30;;;16.10;88.90;;;;;;5073392;28;20020;-60
2021/07/22 03:11:12;;;;;;;4.60;2.97;;;16.10;86.10;;;;;;5073143;28;20028;-61
2021/07/22 03:13:39;;;;;;;3.28;3.08;;;16.30;85.50;;;;;;5073542;28;20066;-59
2021/07/22 03:16:07;;;;;;;4.15;3.40;;;16.50;86.30;;;;;;5073329;28;20048;-60
2021/07/22 03:18:34;;;;;;;3.45;3.10;;;16.70;86.70;;;;;;5073431;28;20047;-59
2021/07/22 03:21:02;;;;;;;3.38;3.05;;;16.60;85.30;;;;;;5073373;28;20028;-58
2021/07/22 03:23:29;;;;;;;3.28;3.00;;;16.80;87.40;;;;;;5073406;28;20025;-59
2021/07/22 03:25:57;;;;;;;3.50;3.10;;;16.90;86.20;;;;;;5073267;28;20477;-64
2021/07/22 03:28:24;;;;;;;3.25;2.95;;;16.90;87.70;;;;;;5073275;28;20095;-63
2021/07/22 03:30:52;;;;;;;2.78;2.60;;;16.80;86.50;;;;;;5073109;28;20032;-64
2021/07/22 03:33:19;;;;;;;3.30;3.00;;;16.90;86.20;;;;;;5073137;28;20070;-63
2021/07/22 03:35:46;;;;;;;2.78;2.58;;;17.00;87.30;;;;;;5073095;28;20020;-63
2021/07/22 03:38:14;;;;;;;2.45;2.25;;;16.90;85.10;;;;;;5073163;28;20021;-61
2021/07/22 03:40:41;;;;;;;3.08;2.20;;;16.90;87.50;;;;;;5073136;28;20039;-62
2021/07/22 03:43:08;;;;;;;3.50;3.20;;;17.00;86.80;;;;;;5073009;28;20012;-62
2021/07/22 03:45:36;;;;;;;3.45;3.15;;;17.00;86.60;;;;;;5073178;28;20369;-62
2021/07/22 03:48:03;;;;;;;3.00;2.80;;;16.90;88.30;;;;;;5073036;28;20016;-62
2021/07/22 03:50:30;;;;;;;4.13;2.92;;;16.90;89.30;;;;;;5073051;28;20028;-61
2021/07/22 03:52:58;;;;;;;4.78;2.70;;;16.90;89.90;;;;;;5072994;28;20393;-59
2021/07/22 03:55:26;;;;;;;4.25;3.10;;;17.00;90.30;;;;;;5072798;28;20021;-59
2021/07/22 03:57:56;;;;;;;3.58;2.97;;;16.80;90.20;;;;;;5073426;28;20111;-59
2021/07/22 04:00:25;;;;;;;6.40;3.80;;;16.70;90.00;;;;;;5072941;28;20028;-59
2021/07/22 04:03:04;;;;;;;8.65;3.10;;;16.40;90.40;;;;;;5072610;28;20042;-59
2021/07/22 04:05:31;;;;;;;7.15;4.43;;;16.40;90.20;;;;;;5072768;28;20024;-61
2021/07/22 04:07:59;;;;;;;3.17;2.85;;;16.40;90.80;;;;;;5072696;28;20027;-62
2021/07/22 04:10:28;;;;;;;3.58;2.88;;;16.50;90.80;;;;;;5072768;28;20032;-61
2021/07/22 04:13:00;;;;;;;3.60;2.88;;;16.50;91.00;;;;;;5071648;28;20116;-61
2021/07/22 04:15:29;;;;;;;3.28;2.90;;;16.60;91.60;;;;;;5072996;28;20031;-62
2021/07/22 04:17:57;;;;;;;5.68;3.65;;;16.50;91.60;;;;;;5072609;28;20504;-61
2021/07/22 04:20:27;;;;;;;5.13;2.80;;;16.50;91.30;;;;;;5073126;28;20081;-61
2021/07/22 04:22:59;;;;;;;3.25;2.75;;;16.50;90.90;;;;;;5077115;28;20032;-59
2021/07/22 04:25:27;;;;;;;3.50;2.55;;;16.70;91.30;;;;;;5076715;28;20028;-59
2021/07/22 04:27:54;;;;;;;5.35;3.30;;;16.80;91.40;;;;;;5076588;28;20123;-58
2021/07/22 04:30:21;;;;;;;3.95;2.30;;;16.70;91.40;;;;;;5076652;28;20021;-61
2021/07/22 04:32:49;;;;;;;3.03;2.75;;;16.80;90.90;;;;;;5076652;28;20387;-59
2021/07/22 04:35:16;;;;;;;3.35;2.88;;;16.80;91.10;;;;;;5076543;28;20508;-58
2021/07/22 04:37:44;;;;;;;2.30;2.20;;;16.70;90.30;;;;;;5076660;28;20021;-58
2021/07/22 04:40:11;;;;;;;2.42;2.28;;;16.60;90.20;;;;;;5076509;28;20416;-60
2021/07/22 04:42:38;;;;;;;2.47;2.28;;;16.60;90.50;;;;;;5076414;28;20027;-59
2021/07/22 04:45:06;;;;;;;3.63;2.38;;;16.60;89.50;;;;;;5076319;28;20027;-59
2021/07/22 04:47:34;;;;;;;2.33;2.13;;;16.50;90.10;;;;;;5076251;28;20073;-61
2021/07/22 04:50:01;;;;;;;2.50;2.30;;;16.50;90.00;;;;;;5076241;28;20381;-61
2021/07/22 04:52:28;;;;;;;2.30;2.10;;;16.40;89.80;;;;;;5076224;28;20021;-60
2021/07/22 04:54:55;;;;;;;2.75;2.55;;;16.30;90.30;;;;;;5076206;28;20028;-59
2021/07/22 04:57:23;;;;;;;3.63;2.78;;;16.20;90.80;;;;;;5075950;28;20121;-61
2021/07/22 04:59:50;;;;;;;2.15;2.05;;;16.10;88.80;;;;;;5077526;28;20024;-58
2021/07/22 05:02:19;;;;;;;2.67;2.38;;;16.20;90.30;;;;;;5076027;28;20021;-58
2021/07/22 05:04:46;;;;;;;3.40;2.22;;;16.20;90.60;;;;;;5075697;28;20024;-57
2021/07/22 05:07:14;;;;;;;2.95;2.10;;;16.10;90.20;;;;;;5075851;28;20025;-56
2021/07/22 05:09:41;;;;;;;2.70;2.50;;;16.00;90.20;;;;;;5076021;28;20017;-58
2021/07/22 05:12:09;;;;;;;2.72;2.40;;;16.00;91.30;;;;;;5076007;28;20016;-58
2021/07/22 05:14:37;;;;;;;2.60;2.40;;;15.90;90.60;;;;;;5075720;28;20031;-57
2021/07/22 05:17:04;;;;;;;2.88;2.70;;;15.80;90.40;;;;;;5075680;28;20074;-58
2021/07/22 05:19:32;;;;;;;2.83;2.63;;;15.80;90.70;;;;;;5075669;28;20496;-58
2021/07/22 05:22:00;;;;;;;2.70;2.53;;;15.60;90.50;;;;;;5075609;28;20427;-58
2021/07/22 05:24:27;;;;;;;2.40;2.20;;;15.50;90.40;;;;;;5075427;28;20503;-58
2021/07/22 05:26:54;;;;;;;3.88;2.42;;;15.30;91.00;;;;;;5075469;28;20023;-62
2021/07/22 05:29:22;;;;;;;3.40;2.10;;;15.30;90.50;;;;;;5075278;28;20031;-57
2021/07/22 05:31:49;;;;;;;2.38;2.20;;;15.50;91.20;;;;;;5074760;28;20556;-58
2021/07/22 05:34:16;;;;;;;2.67;2.00;;;15.30;90.80;;;;;;5074761;28;20016;-58
2021/07/22 05:36:44;;;;;;;3.40;2.20;;;15.30;91.20;;;;;;5075108;28;20020;-59
2021/07/22 05:39:11;;;;;;;2.97;2.67;;;15.20;91.90;;;;;;5075198;28;20146;-59
2021/07/22 05:41:38;;;;;;;2.58;2.38;;;15.10;92.10;;;;;;5075279;28;20055;-58
2021/07/22 05:44:07;;;;;;;2.55;2.35;;;14.90;92.40;;;;;;5074976;28;20108;-58
2021/07/22 05:46:35;;;;;;;2.40;2.30;;;14.80;92.50;;;;;;5075021;28;20104;-57
2021/07/22 05:49:02;;;;;;;3.92;2.47;;;14.80;92.80;;;;;;5074966;28;20058;-57
2021/07/22 05:51:32;;;;;;;4.47;2.95;;;14.70;93.20;;;;;;5074865;28;20023;-58
2021/07/22 05:54:00;;;;;;;5.57;2.83;;;14.60;93.50;;;;;;5074716;28;20431;-58
2021/07/22 05:56:27;;;;;;;4.57;2.90;;;14.60;93.50;;;;;;5074681;28;20132;-57
2021/07/22 05:58:54;;;;;;;3.53;3.22;;;14.60;93.80;;;;;;5074797;28;20024;-58
2021/07/22 06:01:22;;;;;;;4.90;3.35;;;14.50;94.10;;;;;;5074619;28;20052;-58
2021/07/22 06:03:49;;;;;;;4.38;3.00;;;14.60;94.50;;;;;;5074672;28;20016;-58
2021/07/22 06:06:17;;;;;;;5.45;3.00;;;14.50;94.70;;;;;;5074743;28;20021;-59
2021/07/22 06:08:44;;;;;;;3.88;2.75;;;14.50;94.60;;;;;;5074672;28;20071;-58
2021/07/22 06:11:15;;;;;;;4.18;2.78;;;14.50;94.60;;;;;;5074608;28;20070;-59
2021/07/22 06:13:42;;;;;;;5.38;3.33;;;14.50;95.10;;;;;;5074806;28;20043;-59
2021/07/22 06:16:12;;;;;;;4.70;2.90;;;14.40;95.10;;;;;;5074468;28;20476;-58
2021/07/22 06:18:41;;;;;;;5.57;2.75;;;14.30;95.50;;;;;;5074991;28;20024;-56
2021/07/22 06:21:13;;;;;;;6.90;3.13;;;14.20;95.60;;;;;;5074652;28;20097;-58
2021/07/22 06:23:41;;;;;;;4.28;3.17;;;14.20;96.10;;;;;;5074338;28;20024;-59
2021/07/22 06:26:08;;;;;;;4.72;2.90;;;14.10;96.80;;;;;;5074257;28;20028;-59
2021/07/22 06:28:36;;;;;;;3.28;2.95;;;14.10;96.80;;;;;;5074400;28;20051;-61
2021/07/22 06:31:03;;;;;;;4.53;2.70;;;14.00;97.30;;;;;;5074097;28;20025;-61
2021/07/22 06:33:31;;;;;;;4.72;3.00;;;14.00;97.60;;;;;;5074278;28;20029;-60
2021/07/22 06:35:58;;;;;;;5.03;3.22;;;13.80;97.90;;;;;;5074082;28;20112;-60
2021/07/22 06:38:29;;;;;;;5.90;3.03;;;13.70;98.30;;;;;;5074099;28;20055;-60
2021/07/22 06:40:57;;;;;;;4.25;3.70;;;13.60;98.80;;;;;;5074036;28;20055;-61
2021/07/22 06:43:25;;;;;;;4.22;2.83;;;13.50;99.00;;;;;;5073671;28;20111;-60
2021/07/22 06:45:53;;;;;;;4.45;2.90;;;13.40;99.20;;;;;;5074123;28;20449;-61
2021/07/22 06:48:20;;;;;;;5.53;2.90;;;13.20;99.70;;;;;;5073657;28;20480;-60
2021/07/22 06:50:47;;;;;;;5.50;2.88;;;13.20;99.90;;;;;;5073698;28;20059;-60
2021/07/22 06:53:15;;;;;;;4.43;3.25;;;13.00;99.90;;;;;;5073770;28;20112;-61
2021/07/22 06:55:42;;;;;;;4.07;3.17;;;12.90;99.90;;;;;;5073649;28;20526;-61
2021/07/22 06:58:10;;;;;;;5.70;3.50;;;12.90;99.90;;;;;;5073834;28;20028;-60
2021/07/22 07:00:38;;;;;;;6.20;3.00;;;12.80;99.90;;;;;;5073507;28;20082;-60
2021/07/22 07:03:11;;;;;;;5.03;3.63;;;12.60;99.90;;;;;;5073587;28;20094;-62
2021/07/22 07:05:39;;;;;;;7.63;3.50;;;12.50;99.90;;;;;;5073657;28;20465;-60
2021/07/22 07:08:06;;;;;;;4.85;4.00;;;12.20;99.90;;;;;;5073387;28;20028;-61
2021/07/22 07:10:34;;;;;;;5.65;4.10;;;12.40;99.90;;;;;;5073472;28;20017;-60
2021/07/22 07:13:01;;;;;;;6.20;3.78;;;12.30;99.90;;;;;;5073279;28;20028;-61
2021/07/22 07:15:29;;;;;;;5.53;3.85;;;12.40;99.90;;;;;;5073523;28;20016;-61
2021/07/22 07:17:57;;;;;;;4.25;3.90;;;12.30;99.90;;;;;;5073159;28;20450;-61
2021/07/22 07:20:25;;;;;;;5.88;3.53;;;12.30;99.90;;;;;;5071998;28;20039;-60
2021/07/22 07:22:53;;;;;;;5.28;3.75;;;12.20;99.90;;;;;;5073124;28;20032;-60
2021/07/22 07:25:21;;;;;;;7.05;4.03;;;12.00;99.90;;;;;;5073243;28;20065;-60
2021/07/22 07:27:49;;;;;;;6.45;4.00;;;12.00;99.90;;;;;;5073200;28;20016;-60
2021/07/22 07:30:19;;;;;;;4.97;3.60;;;11.90;99.90;;;;;;5073123;28;20023;-61
2021/07/22 07:32:52;;;;;;;7.00;6.30;;;11.80;99.90;;;;;;5073246;28;20020;-62
2021/07/22 07:35:20;;;;;;;8.88;5.05;;;11.70;99.90;;;;;;5073458;28;20028;-61
2021/07/22 07:37:47;;;;;;;9.95;6.75;;;11.70;99.90;;;;;;5073032;28;20028;-61
2021/07/22 07:40:15;;;;;;;6.47;4.50;;;11.70;99.90;;;;;;5073319;28;20021;-61
2021/07/22 07:42:42;;;;;;;7.60;4.00;;;11.60;99.90;;;;;;5072759;28;20025;-61
2021/07/22 07:45:10;;;;;;;8.15;4.82;;;11.50;99.90;;;;;;5072980;28;20016;-61
2021/07/22 07:47:37;;;;;;;6.93;4.57;;;11.50;99.90;;;;;;5072888;28;20021;-61
2021/07/22 07:50:07;;;;;;;5.63;4.70;;;11.40;99.90;;;;;;5072941;28;20016;-62
2021/07/22 07:52:36;;;;;;;6.13;4.50;;;11.40;99.90;;;;;;5072764;28;20438;-61
2021/07/22 07:55:08;;;;;;;6.35;4.75;;;11.40;99.90;;;;;;5072577;28;20016;-61
2021/07/22 07:57:35;;;;;;;5.80;5.25;;;11.40;99.90;;;;;;5072736;28;20409;-61
2021/07/22 08:00:04;;;;;;;6.55;5.20;;;11.40;99.90;;;;;;5072936;28;20027;-61
2021/07/22 08:02:32;;;;;;;6.75;5.00;;;11.30;99.90;;;;;;5072772;28;20020;-61
2021/07/22 08:05:00;;;;;;;7.50;4.90;;;11.30;99.90;;;;;;5072749;28;20100;-60
2021/07/22 08:07:27;;;;;;;7.78;4.72;;;11.40;99.90;;;;;;5073036;28;20070;-60
2021/07/22 08:09:55;;;;;;;6.82;4.65;;;11.40;99.90;;;;;;5073165;28;20104;-60
2021/07/22 08:12:22;;;;;;;6.57;4.65;;;11.40;99.90;;;;;;5072635;28;20028;-59
2021/07/22 08:14:49;;;;;;;7.05;5.10;;;11.40;99.90;;;;;;5072638;28;20035;-60
2021/07/22 08:17:20;;;;;;;7.88;5.40;;;11.30;99.90;;;;;;5072575;28;20028;-59
2021/07/22 08:19:48;;;;;;;7.57;5.38;;;11.30;99.90;;;;;;5072689;28;20532;-60
2021/07/22 08:22:15;;;;;;;6.85;5.10;;;11.30;99.90;;;;;;5072531;28;20099;-60
2021/07/22 08:24:43;;;;;;;6.93;5.10;;;11.30;99.90;;;;;;5072559;28;20100;-59
2021/07/22 08:27:11;;;;;;;6.75;6.05;;;11.20;99.90;;;;;;5072441;28;20020;-60
2021/07/22 08:29:40;;;;;;;7.03;5.53;;;11.20;99.90;;;;;;5072474;28;20036;-60
2021/07/22 08:32:07;;;;;;;7.72;6.03;;;11.10;99.90;;;;;;5072534;28;20017;-60
2021/07/22 08:34:35;;;;;;;6.90;6.20;;;11.10;99.90;;;;;;5072414;28;20400;-60
2021/07/22 08:37:10;;;;;;;6.55;5.25;;;11.10;99.90;;;;;;5072438;28;20024;-61
2021/07/22 08:39:43;;;;;;;8.82;5.82;;;11.10;99.90;;;;;;5072377;28;20489;-60
2021/07/22 08:42:12;;;;;;;10.57;6.40;;;11.00;99.90;;;;;;5072566;28;20021;-60
2021/07/22 08:44:41;;;;;;;8.75;6.78;;;10.90;99.90;;;;;;5072407;28;20021;-59
2021/07/22 08:47:13;;;;;;;8.93;6.30;;;10.90;99.90;;;;;;5072293;28;20016;-60
2021/07/22 08:49:41;;;;;;;7.03;6.32;;;11.00;99.90;;;;;;5072185;28;20362;-60
2021/07/22 08:52:11;;;;;;;8.15;7.32;;;10.90;99.90;;;;;;5072029;28;20078;-60
2021/07/22 08:54:39;;;;;;;9.45;7.35;;;10.90;99.90;;;;;;5072220;28;20389;-60
2021/07/22 08:57:09;;;;;;;7.30;6.60;;;10.90;99.90;;;;;;5072001;28;20044;-60
2021/07/22 08:59:37;;;;;;;12.25;6.90;;;10.90;99.90;;;;;;5072174;28;20028;-60
2021/07/22 09:02:05;;;;;;;8.48;7.18;;;10.90;99.90;;;;;;5072174;28;20473;-60
2021/07/22 09:05:00;;;;;;;10.40;7.85;;;10.90;99.90;;;;;;5072162;28;20063;-60
2021/07/22 09:07:28;;;;;;;8.32;7.30;;;10.80;99.90;;;;;;5072837;28;20021;-60
2021/07/22 09:10:08;;;;;;;9.52;7.00;;;10.70;99.90;;;;;;5076224;28;20381;-60
2021/07/22 09:12:42;;;;;;;9.40;7.32;;;10.60;99.90;;;;;;5075745;28;20097;-60
2021/07/22 09:15:11;;;;;;;9.68;6.68;;;10.60;99.90;;;;;;5075856;28;20024;-60
2021/07/22 09:17:39;;;;;;;7.93;7.13;;;10.50;99.90;;;;;;5075915;28;20602;-60
2021/07/22 09:20:25;;;;;;;7.82;7.10;;;10.50;99.90;;;;;;5075786;28;20753;-61
2021/07/22 09:22:52;;;;;;;9.05;7.95;;;10.50;99.90;;;;;;5075514;28;20500;-60
2021/07/22 09:25:35;;;;;;;10.18;7.65;;;10.50;99.90;;;;;;5075773;28;20016;-60
2021/07/22 09:28:03;;;;;;;8.95;8.02;;;10.40;99.90;;;;;;5075635;28;20020;-60
2021/07/22 09:30:30;;;;;;;8.00;7.30;;;10.40;99.90;;;;;;5075499;28;20025;-61
2021/07/22 09:32:58;;;;;;;10.27;8.30;;;10.40;99.90;;;;;;5075538;28;20075;-60
2021/07/22 09:35:26;;;;;;;8.93;8.05;;;10.30;99.90;;;;;;5075518;28;20052;-60
2021/07/22 09:37:55;;;;;;;10.88;7.93;;;10.30;99.90;;;;;;5075289;28;20354;-60
2021/07/22 09:40:31;;;;;;;9.10;8.20;;;10.30;99.90;;;;;;5075272;28;20029;-60
2021/07/22 09:42:59;;;;;;;11.68;8.13;;;10.30;99.90;;;;;;5075141;28;20099;-60
2021/07/22 09:45:30;;;;;;;12.07;8.35;;;10.20;99.90;;;;;;5075178;28;20016;-60
2021/07/22 09:48:08;;;;;;;10.85;7.82;;;10.20;99.90;;;;;;5075225;28;20029;-60
2021/07/22 09:50:45;;;;;;;11.73;8.00;;;10.30;99.90;;;;;;5075260;28;20017;-60
2021/07/22 09:53:14;;;;;;;10.80;7.57;;;10.40;99.90;;;;;;5075077;28;20052;-61
2021/07/22 09:55:43;;;;;;;9.20;8.30;;;10.50;99.90;;;;;;5074803;28;20472;-61
2021/07/22 09:58:13;;;;;;;9.23;7.80;;;10.60;99.90;;;;;;5074983;28;20070;-59
2021/07/22 10:00:48;;;;;;;8.95;8.15;;;10.50;99.90;;;;;;5074904;28;20036;-60
2021/07/22 10:03:19;;;;;;;9.20;8.32;;;10.50;99.90;;;;;;5074804;28;20046;-60
2021/07/22 10:06:11;;;;;;;11.10;8.68;;;10.60;99.90;;;;;;5075189;28;20373;-60
2021/07/22 10:08:40;;;;;;;9.38;8.48;;;10.60;99.90;;;;;;5074636;28;20400;-60
2021/07/22 10:11:08;;;;;;;10.02;9.00;;;10.60;99.90;;;;;;5074894;28;20021;-60
2021/07/22 10:13:39;;;;;;;9.30;8.50;;;10.50;99.90;;;;;;5074686;28;20017;-59
2021/07/22 10:16:20;;;;;;;9.23;8.50;;;10.60;99.90;;;;;;5074672;28;20029;-60
2021/07/22 10:18:49;;;;;;;9.30;8.48;;;10.60;99.90;;;;;;5074208;28;20028;-60
2021/07/22 10:21:17;;;;;;;9.95;8.68;;;10.80;99.90;;;;;;5074535;28;20115;-60
2021/07/22 10:23:44;;;;;;;10.63;8.10;;;10.80;99.90;;;;;;5073072;28;20021;-61
2021/07/22 10:26:12;;;;;;;11.75;8.68;;;10.70;99.90;;;;;;5074293;28;20017;-61
2021/07/22 10:28:40;;;;;;;8.38;7.53;;;10.70;99.90;;;;;;5074472;28;20025;-60
2021/07/22 10:31:08;;;;;;;9.52;7.35;;;10.60;99.90;;;;;;5074272;28;20021;-60
2021/07/22 10:33:38;;;;;;;11.43;7.38;;;10.60;99.90;;;;;;5074044;28;20024;-61
2021/07/22 10:36:06;;;;;;;13.02;8.10;;;10.50;99.90;;;;;;5074249;28;20021;-60
2021/07/22 10:38:47;;;;;;;7.55;6.85;;;10.50;99.90;;;;;;5074042;28;20508;-60
2021/07/22 10:41:38;;;;;;;10.20;7.88;;;10.50;99.90;;;;;;5074075;28;20055;-60
2021/07/22 10:44:07;;;;;;;7.78;7.07;;;10.70;99.90;;;;;;5073916;28;20109;-61
2021/07/22 10:46:56;;;;;;;8.93;8.00;;;10.60;99.90;;;;;;5073949;28;20025;-59
2021/07/22 10:49:43;;;;;;;8.20;7.40;;;10.80;99.90;;;;;;5073953;28;20435;-61
2021/07/22 10:52:12;;;;;;;9.05;8.15;;;10.70;99.90;;;;;;5072736;28;20051;-60
2021/07/22 10:54:51;;;;;;;9.45;8.65;;;10.60;99.90;;;;;;5073892;28;20024;-61
2021/07/22 10:57:48;;;;;;;8.55;7.75;;;10.60;99.90;;;;;;5073705;28;20045;-61
2021/07/22 11:00:18;;;;;;;8.20;7.40;;;10.60;99.90;;;;;;5065042;28;20107;-61
2021/07/22 11:02:49;;;;;;;8.10;7.50;;;10.60;99.90;;;;;;5073609;28;20051;-62
2021/07/22 11:05:25;;;;;;;8.40;7.75;;;10.70;99.90;;;;;;5073749;28;20452;-61
2021/07/22 11:08:37;;;;;;;10.80;8.50;;;10.60;99.90;;;;;;5073695;28;20017;-61
2021/07/22 11:11:09;;;;;;;9.00;8.00;;;10.60;99.90;;;;;;5071516;28;20115;-62
2021/07/22 11:13:36;;;;;;;8.90;8.20;;;10.60;99.90;;;;;;5073688;28;20024;-62
2021/07/22 11:16:22;;;;;;;9.18;8.27;;;10.70;99.90;;;;;;5073483;28;20021;-61
2021/07/22 11:19:03;;;;;;;8.70;7.93;;;10.60;99.90;;;;;;5073445;28;20090;-61
2021/07/22 11:21:35;;;;;;;9.32;8.43;;;10.50;99.90;;;;;;5073457;28;20446;-61
2021/07/22 11:24:16;;;;;;;9.55;8.63;;;10.60;99.90;;;;;;5073186;28;20029;-61
2021/07/22 11:26:43;;;;;;;;;;;10.60;99.90;;;;;;5073723;28;20065;-62
2021/07/22 11:29:12;;;;;;;9.50;8.65;;;10.60;99.90;;;;;;5073072;28;19904;-62
2021/07/22 11:31:41;;;;;;;9.50;8.90;;;10.60;99.90;;;;;;5071148;28;20108;-61
2021/07/22 11:34:08;;;;;;;9.65;9.15;;;10.60;99.90;;;;;;5072903;28;20028;-62
2021/07/22 11:36:36;;;;;;;9.93;9.13;;;10.60;99.90;;;;;;5073012;28;20481;-61
2021/07/22 11:39:05;;;;;;;9.77;8.80;;;10.60;99.90;;;;;;5072995;28;20028;-60
2021/07/22 11:41:33;;;;;;;12.55;9.52;;;10.60;99.90;;;;;;5072880;28;20056;-60
2021/07/22 11:44:05;;;;;;;9.45;8.60;;;10.60;99.90;;;;;;5072901;28;20027;-60
2021/07/22 11:46:37;;;;;;;9.05;8.52;;;10.50;99.90;;;;;;5072866;28;20020;-61
2021/07/22 11:49:17;;;;;;;9.45;8.65;;;10.40;99.90;;;;;;5073088;28;20070;-61
2021/07/22 11:51:46;;;;;;;10.55;9.70;;;10.40;99.90;;;;;;5072842;28;20059;-61
2021/07/22 11:54:17;;;;;;;9.00;8.30;;;10.40;99.90;;;;;;5072927;28;20052;-61
2021/07/22 11:56:47;;;;;;;;;;;10.40;99.90;;;;;;5073591;28;20049;-60
2021/07/22 11:59:15;;;;;;;10.95;10.15;;;10.30;99.90;;;;;;5073167;28;19947;-62
2021/07/22 12:02:02;;;;;;;11.40;10.45;;;10.20;99.90;;;;;;5073365;28;20486;-60
2021/07/22 12:04:31;;;;;;;11.25;10.50;;;10.20;99.90;;;;;;5072588;28;20025;-59
2021/07/22 12:07:04;;;;;;;11.27;10.50;;;10.20;99.90;;;;;;5072856;28;20024;-62
2021/07/22 12:09:32;;;;;;;11.52;10.68;;;10.30;99.90;;;;;;5072685;28;20536;-61
2021/07/22 12:12:05;;;;;;;13.18;11.95;;;10.20;99.90;;;;;;5072775;28;20020;-62
2021/07/22 12:14:37;;;;;;;12.30;11.18;;;10.30;99.90;;;;;;5072869;28;20036;-61
2021/07/22 12:17:12;;;;;;;12.27;11.48;;;10.30;99.90;;;;;;5072646;28;20095;-61
2021/07/22 12:19:46;;;;;;;12.55;11.38;;;10.30;99.90;;;;;;5072679;28;20481;-61
2021/07/22 12:22:37;;;;;;;13.48;12.43;;;10.30;99.90;;;;;;5072473;28;20354;-61
2021/07/22 12:25:07;;;;;;;12.80;11.80;;;10.30;99.90;;;;;;5072516;28;20048;-62
2021/07/22 12:27:44;;;;;;;12.38;11.45;;;10.30;99.90;;;;;;5072606;28;20021;-62
2021/07/22 12:30:18;;;;;;;12.65;11.75;;;10.30;99.90;;;;;;5072561;28;20158;-62
2021/07/22 12:32:50;;;;;;;12.88;12.02;;;10.30;99.90;;;;;;5072435;28;20024;-61
2021/07/22 12:35:40;;;;;;;13.45;12.45;;;10.30;99.90;;;;;;5072697;28;20404;-61
2021/07/22 12:38:16;;;;;;;13.05;12.30;;;10.30;99.90;;;;;;5072489;28;20027;-62
2021/07/22 12:40:44;;;;;;;14.20;13.00;;;10.30;99.90;;;;;;5072699;28;20025;-61
2021/07/22 12:43:20;;;;;;;14.10;13.23;;;10.30;99.90;;;;;;5075787;28;20024;-61
2021/07/22 12:45:49;;;;;;;14.25;13.40;;;10.40;99.90;;;;;;5076435;28;20018;-61
2021/07/22 12:48:18;;;;;;;13.82;13.02;;;10.50;99.90;;;;;;5076272;28;20070;-61
2021/07/22 12:50:50;;;;;;;13.68;12.88;;;10.50;99.90;;;;;;5076220;28;20051;-62
2021/07/22 12:53:34;;;;;;;14.40;13.25;;;10.60;99.90;;;;;;5076275;28;20057;-60
2021/07/22 12:56:01;;;;;;;14.55;13.68;;;10.70;99.90;;;;;;5076253;28;20404;-60
2021/07/22 12:58:34;;;;;;;14.85;14.00;;;10.60;99.90;;;;;;5076005;28;20493;-61